createdAt,value
2023-05-09T00:03:37.265Z,8.83
2023-05-09T00:08:38.809Z,8.03
2023-05-09T00:13:41.301Z,8.20
2023-05-09T00:18:43.430Z,8.47
2023-05-09T00:23:45.623Z,6.77
2023-05-09T00:28:47.210Z,7.30
2023-05-09T00:33:48.924Z,7.53
2023-05-09T00:38:50.293Z,7.40
2023-05-09T00:43:51.871Z,7.43
2023-05-09T00:48:53.359Z,7.57
2023-05-09T00:53:54.637Z,6.90
2023-05-09T00:58:56.140Z,7.43
2023-05-09T01:03:58.440Z,7.30
2023-05-09T01:09:08.277Z,6.77
2023-05-09T01:14:21.819Z,7.20
2023-05-09T01:19:41.770Z,6.87
2023-05-09T01:25:06.584Z,7.60
2023-05-09T01:30:10.228Z,6.73
2023-05-09T01:35:13.827Z,6.67
2023-05-09T01:40:19.420Z,7.37
2023-05-09T01:45:22.795Z,7.20
2023-05-09T01:50:25.334Z,7.40
2023-05-09T01:55:30.079Z,6.80
2023-05-09T02:00:33.804Z,7.37
2023-05-09T02:05:36.576Z,6.43
2023-05-09T02:10:38.243Z,7.17
2023-05-09T02:15:40.092Z,6.37
2023-05-09T02:20:41.499Z,7.13
2023-05-09T02:25:43.691Z,6.30
2023-05-09T02:30:46.698Z,6.37
2023-05-09T02:35:48.753Z,7.27
2023-05-09T02:40:52.258Z,6.50
2023-05-09T02:45:54.375Z,7.20
2023-05-09T02:50:57.110Z,6.37
2023-05-09T02:55:58.487Z,7.03
2023-05-09T03:00:59.819Z,6.90
2023-05-09T03:06:01.183Z,7.23
2023-05-09T03:11:02.713Z,7.33
2023-05-09T03:16:06.600Z,7.33
2023-05-09T03:21:08.218Z,7.03
2023-05-09T03:26:11.535Z,7.23
2023-05-09T03:31:13.442Z,7.77
2023-05-09T03:36:14.879Z,7.40
2023-05-09T03:41:18.359Z,7.77
2023-05-09T03:46:22.345Z,7.70
2023-05-09T03:51:24.520Z,7.47
2023-05-09T03:56:27.395Z,7.40
2023-05-09T04:01:29.483Z,7.70
2023-05-09T04:06:33.452Z,7.67
2023-05-09T04:11:35.615Z,6.70
2023-05-09T04:16:39.973Z,7.37
2023-05-09T04:21:41.181Z,8.07
2023-05-09T04:26:43.457Z,8.47
2023-05-09T04:31:48.638Z,8.20
2023-05-09T04:36:51.416Z,7.90
2023-05-09T04:41:53.271Z,8.50
2023-05-09T04:46:55.266Z,8.10
2023-05-09T04:51:56.659Z,8.33
2023-05-09T04:57:09.939Z,8.33
2023-05-09T05:02:20.549Z,8.80
2023-05-09T05:07:23.353Z,8.50
2023-05-09T05:12:24.755Z,8.43
2023-05-09T05:17:28.686Z,8.57
2023-05-09T05:22:32.833Z,8.75
2023-05-09T05:27:34.367Z,9.00
2023-05-09T05:32:35.673Z,8.97
2023-05-09T05:37:38.143Z,9.67
2023-05-09T05:42:39.739Z,9.80
2023-05-09T05:47:42.117Z,9.60
2023-05-09T05:52:43.950Z,9.23
2023-05-09T05:57:48.418Z,8.90
2023-05-09T06:02:50.531Z,9.37
2023-05-09T06:08:13.248Z,10.80
2023-05-09T06:13:14.414Z,10.30
2023-05-09T06:18:20.886Z,9.07
2023-05-09T06:23:22.387Z,9.82
2023-05-09T06:28:23.767Z,9.87
2023-05-09T06:33:24.951Z,9.23
2023-05-09T06:38:26.303Z,9.52
2023-05-09T06:43:27.651Z,9.32
2023-05-09T06:48:28.968Z,9.38
2023-05-09T06:53:30.251Z,8.80
2023-05-09T06:58:31.625Z,8.70
2023-05-09T07:03:32.756Z,9.00
2023-05-09T07:08:34.083Z,8.82
2023-05-09T07:13:35.817Z,8.70
2023-05-09T07:18:37.112Z,7.90
2023-05-09T07:23:38.520Z,8.55
2023-05-09T07:28:39.915Z,9.18
2023-05-09T07:33:41.482Z,8.45
2023-05-09T07:38:42.732Z,7.93
2023-05-09T07:43:44.451Z,6.72
2023-05-09T07:48:46.051Z,7.25
2023-05-09T07:53:47.611Z,6.57
2023-05-09T07:58:48.929Z,6.07
2023-05-09T08:03:50.105Z,7.03
2023-05-09T08:08:51.978Z,5.93
2023-05-09T08:13:53.577Z,6.35
2023-05-09T08:18:54.863Z,6.43
2023-05-09T08:23:56.255Z,6.28
2023-05-09T08:28:57.367Z,6.80
2023-05-09T08:33:58.689Z,6.20
2023-05-09T08:39:00.298Z,7.13
2023-05-09T08:44:02.291Z,5.70
2023-05-09T08:49:06.551Z,5.95
2023-05-09T08:54:07.976Z,5.20
2023-05-09T08:59:09.707Z,5.05
2023-05-09T09:04:14.144Z,4.82
2023-05-09T09:09:17.143Z,5.72
2023-05-09T09:14:24.815Z,5.47
2023-05-09T09:25:31.705Z,6.32
2023-05-09T09:30:32.988Z,6.00
2023-05-09T09:35:39.319Z,5.75
2023-05-09T09:40:48.753Z,4.43
2023-05-09T09:45:50.702Z,3.60
2023-05-09T09:50:54.870Z,3.95
2023-05-09T09:55:56.391Z,3.88
2023-05-09T10:01:24.492Z,4.07
2023-05-09T10:06:28.297Z,4.35
2023-05-09T10:11:29.712Z,4.10
2023-05-09T10:16:42.584Z,4.00
2023-05-09T10:21:57.041Z,4.22
2023-05-09T10:27:10.350Z,4.72
2023-05-09T10:32:23.966Z,4.95
2023-05-09T10:37:26.163Z,5.35
2023-05-09T10:42:28.760Z,5.43
2023-05-09T10:47:32.617Z,5.13
2023-05-09T10:52:34.090Z,4.47
2023-05-09T10:57:38.656Z,4.82
2023-05-09T11:02:39.949Z,5.47
2023-05-09T11:07:42.621Z,4.75
2023-05-09T11:12:58.586Z,4.63
2023-05-09T11:18:05.639Z,4.50
2023-05-09T11:23:09.732Z,3.83
2023-05-09T11:28:26.142Z,4.75
2023-05-09T11:33:30.576Z,4.50
2023-05-09T11:38:41.257Z,4.10
2023-05-09T11:43:44.216Z,4.63
2023-05-09T11:48:47.536Z,4.00
2023-05-09T11:53:49.896Z,3.90
2023-05-09T11:58:51.589Z,3.90
2023-05-09T12:03:53.226Z,3.65
2023-05-09T12:08:55.420Z,3.63
2023-05-09T12:13:56.705Z,3.90
2023-05-09T12:18:57.799Z,3.50
2023-05-09T12:23:59.184Z,4.38
2023-05-09T12:29:00.969Z,3.90
2023-05-09T12:34:03.064Z,3.25
2023-05-09T12:39:11.592Z,2.50
2023-05-09T12:44:26.097Z,3.08
2023-05-09T12:49:29.012Z,1.90
2023-05-09T12:54:30.433Z,2.00
2023-05-09T12:59:32.675Z,1.75
2023-05-09T13:04:33.853Z,1.60
2023-05-09T13:09:35.483Z,1.30
2023-05-09T13:14:36.873Z,1.52
2023-05-09T13:19:38.895Z,1.65
2023-05-09T13:24:40.416Z,1.67
2023-05-09T13:29:42.244Z,1.70
2023-05-09T13:34:43.654Z,2.00
2023-05-09T13:39:44.935Z,1.85
2023-05-09T13:44:46.324Z,1.70
2023-05-09T13:49:47.658Z,1.90
2023-05-09T13:54:49.622Z,1.65
2023-05-09T13:59:51.193Z,1.85
2023-05-09T14:04:52.566Z,1.85
2023-05-09T14:09:58.748Z,1.75
2023-05-09T14:15:10.408Z,2.70
2023-05-09T14:20:12.514Z,1.80
2023-05-09T14:25:14.185Z,2.03
2023-05-09T14:30:15.728Z,2.47
2023-05-09T14:35:17.860Z,2.00
2023-05-09T14:40:20.310Z,3.00
2023-05-09T14:45:21.711Z,2.00
2023-05-09T14:50:23.087Z,2.10
2023-05-09T14:55:25.940Z,2.43
2023-05-09T15:00:27.784Z,2.50
2023-05-09T15:05:29.589Z,2.37
2023-05-09T15:10:32.120Z,2.23
2023-05-09T15:15:33.785Z,2.60
2023-05-09T15:20:38.701Z,2.03
2023-05-09T15:25:41.846Z,2.50
2023-05-09T15:30:44.587Z,2.70
2023-05-09T15:35:46.200Z,2.87
2023-05-09T15:40:47.908Z,2.20
2023-05-09T15:45:49.205Z,1.90
2023-05-09T15:50:52.397Z,2.30
2023-05-09T15:55:54.727Z,2.47
2023-05-09T16:00:55.961Z,2.63
2023-05-09T16:05:57.585Z,2.38
2023-05-09T16:11:01.150Z,2.00
2023-05-09T16:16:02.986Z,2.08
2023-05-09T16:21:04.800Z,2.50
2023-05-09T16:26:06.547Z,1.70
2023-05-09T16:31:08.190Z,2.00
2023-05-09T16:36:09.556Z,2.60
2023-05-09T16:41:11.029Z,2.53
2023-05-09T16:46:12.437Z,2.78
2023-05-09T16:51:13.780Z,2.20
2023-05-09T16:56:15.132Z,2.73
2023-05-09T17:01:16.428Z,3.10
2023-05-09T17:06:18.869Z,3.00
2023-05-09T17:11:20.904Z,2.70
2023-05-09T17:16:22.246Z,2.97
2023-05-09T17:21:23.648Z,3.13
2023-05-09T17:26:25.198Z,3.75
2023-05-09T17:31:26.448Z,3.55
2023-05-09T17:36:27.989Z,3.80
2023-05-09T17:41:29.550Z,4.38
2023-05-09T17:46:31.806Z,4.28
2023-05-09T17:51:33.303Z,4.60
2023-05-09T17:56:34.929Z,4.95
2023-05-09T18:01:36.945Z,4.90
2023-05-09T18:06:38.470Z,5.30
2023-05-09T18:11:39.633Z,5.28
2023-05-09T18:16:41.626Z,4.88
2023-05-09T18:21:42.976Z,5.47
2023-05-09T18:26:44.181Z,6.20
2023-05-09T18:31:45.628Z,6.32
2023-05-09T18:36:47.877Z,6.60
2023-05-09T18:41:49.396Z,6.67
2023-05-09T18:46:52.744Z,7.10
2023-05-09T18:52:01.219Z,6.83
2023-05-09T18:57:03.027Z,7.50
2023-05-09T19:02:04.484Z,8.03
2023-05-09T19:07:07.052Z,8.93
2023-05-09T19:12:09.081Z,8.77
2023-05-09T19:17:10.554Z,10.17
2023-05-09T19:22:12.180Z,9.30
2023-05-09T19:27:13.612Z,10.30
2023-05-09T19:32:17.188Z,10.30
2023-05-09T19:37:18.656Z,11.47
2023-05-09T19:42:20.835Z,12.10
2023-05-09T19:47:22.095Z,12.73
2023-05-09T19:52:23.429Z,13.57
2023-05-09T19:57:24.836Z,13.60
2023-05-09T20:02:26.616Z,14.90
2023-05-09T20:07:29.046Z,15.17
2023-05-09T20:12:30.697Z,15.53
2023-05-09T20:17:31.983Z,13.60
2023-05-09T20:22:33.231Z,13.40
2023-05-09T20:27:36.497Z,12.03
2023-05-09T20:32:38.137Z,13.07
2023-05-09T20:37:39.624Z,13.23
2023-05-09T20:42:41.114Z,12.47
2023-05-09T20:47:42.513Z,10.83
2023-05-09T20:52:43.750Z,10.87
2023-05-09T20:57:44.962Z,9.83
2023-05-09T21:02:46.729Z,8.90
2023-05-09T21:07:48.169Z,9.27
2023-05-09T21:12:49.639Z,8.90
2023-05-09T21:17:51.109Z,10.03
2023-05-09T21:22:52.392Z,11.07
2023-05-09T21:27:53.768Z,10.63
2023-05-09T21:32:54.995Z,10.10
2023-05-09T21:37:56.308Z,9.47
2023-05-09T21:42:57.533Z,8.53
2023-05-09T21:47:58.995Z,9.13
2023-05-09T21:53:00.829Z,9.77
2023-05-09T21:58:02.436Z,8.90
2023-05-09T22:03:04.101Z,10.20
2023-05-09T22:08:05.408Z,11.00
2023-05-09T22:13:06.903Z,10.03
2023-05-09T22:18:08.229Z,12.43
2023-05-09T22:23:09.739Z,11.27
2023-05-09T22:28:11.242Z,12.37
2023-05-09T22:33:12.694Z,14.10
2023-05-09T22:38:13.908Z,13.97
2023-05-09T22:43:15.314Z,13.27
2023-05-09T22:48:16.741Z,14.00
2023-05-09T22:53:18.249Z,13.00
2023-05-09T22:58:20.131Z,13.80
2023-05-09T23:03:22.211Z,12.87
2023-05-09T23:08:23.660Z,13.57
2023-05-09T23:13:25.341Z,13.70
2023-05-09T23:18:27.411Z,13.57
2023-05-09T23:23:28.649Z,12.10
2023-05-09T23:28:29.969Z,12.67
2023-05-09T23:33:31.236Z,10.30
2023-05-09T23:38:32.657Z,11.37
2023-05-09T23:43:33.932Z,10.73
2023-05-09T23:48:35.202Z,10.90
2023-05-09T23:53:36.574Z,9.67
2023-05-09T23:58:38.039Z,10.63
